There are multiple Weather-warnings   Click here for more information


Meteo18 Weather Cam more information Meteo18 Weather Cam


Thunder radar more information blitzortung!


warning for Snow/Ice more information rain snow radar


Visit our other weather sites:

Template documentation
and downloads

And another site



Weather Underground History page Text

Daily Summary for February 3, 2018 Units:  English    Metric   Both
« Previous Day
Next Day »
Daily Weekly Monthly Yearly Custom
  High: Low: Average:
Temperature: TemperatureC °F 0.8 °F 2.7 °F
Dew Point: DewpointC °F 0.2 °F 1.6 °F
Humidity: Humidity % 85 % 93 %
Wind Speed: WindSpeedKMH mph 0.0 mph 3.5 mph
Wind Gust: WindSpeedGustKMH mph - -
Wind:- - WSW
Pressure: PressurehPa in 1006.3 in -
Precipitation: 0.5 in    
Historical Graphs
 
 
Tabular Data for February 3, 2018
Time Temperature Dew Point Pressure Wind Wind Speed Wind Gust Humidity Rainfall Rate (Hourly)
TemperatureC °F DewpointC °F PressurehPa in Calm     Humidity % HourlyPrecipMM in
00:00 2.6 °F 1.4 °F 1011.7 in NW 6.4 mph 8.0 mph 92 % 0.0 in
00:06 2.5 °F 1.3 °F 1011.7 in WNW 4.7 mph 9.7 mph 92 % 0.0 in
00:12 2.4 °F 1.2 °F 1011.7 in WNW 4.7 mph 9.7 mph 92 % 0.0 in
00:19 2.3 °F 1.1 °F 1011.7 in WSW 3.2 mph 6.4 mph 92 % 0.0 in
00:25 2.2 °F 1.2 °F 1011.7 in West 3.2 mph 8.0 mph 93 % 0.0 in
00:31 2.1 °F 1.1 °F 1011.7 in WNW 7.9 mph 9.7 mph 93 % 0.0 in
00:37 1.9 °F 0.9 °F 1011.7 in WNW 4.7 mph 8.0 mph 93 % 0.0 in
00:43 1.9 °F 0.9 °F 1011.7 in WNW 1.4 mph 9.7 mph 93 % 0.0 in
00:49 1.8 °F 0.8 °F 1011.7 in WNW 4.7 mph 8.0 mph 93 % 0.0 in
00:55 1.8 °F 0.8 °F 1011.7 in WNW 4.7 mph 6.4 mph 93 % 0.0 in
01:01 1.7 °F 0.8 °F 1011.7 in WNW 7.9 mph 9.7 mph 94 % 0.0 in
01:07 1.7 °F 0.8 °F 1011.7 in WNW 3.2 mph 9.7 mph 94 % 0.0 in
01:13 1.6 °F 0.7 °F 1011.7 in WNW 3.2 mph 11.3 mph 94 % 0.0 in
01:19 1.7 °F 0.8 °F 1011.7 in WNW 9.7 mph 11.3 mph 94 % 0.0 in
01:25 1.7 °F 0.8 °F 1011.7 in WNW 7.9 mph 11.3 mph 94 % 0.0 in
01:31 1.7 °F 0.8 °F 1011.7 in WNW 6.4 mph 9.7 mph 94 % 0.0 in
01:37 1.6 °F 0.7 °F 1011.7 in WNW 6.4 mph 6.4 mph 94 % 0.0 in
01:43 1.5 °F 0.6 °F 1011.7 in NW 4.7 mph 8.0 mph 94 % 0.0 in
01:49 1.4 °F 0.5 °F 1011.7 in NW 4.7 mph 8.0 mph 94 % 0.0 in
01:55 1.5 °F 0.6 °F 1011.7 in WNW 1.4 mph 9.7 mph 94 % 0.0 in
02:01 1.4 °F 0.5 °F 1011.7 in West 1.4 mph 8.0 mph 94 % 0.0 in
02:07 1.4 °F 0.5 °F 1011.7 in NW 3.2 mph 6.4 mph 94 % 0.0 in
02:13 1.6 °F 0.7 °F 1011.7 in West 4.7 mph 8.0 mph 94 % 0.0 in
02:19 1.6 °F 0.7 °F 1011.7 in WNW 1.4 mph 4.8 mph 94 % 0.0 in
02:25 1.6 °F 0.7 °F 1011.7 in WNW 3.2 mph 4.8 mph 94 % 0.0 in
02:31 1.7 °F 0.8 °F 1011.7 in NW 1.4 mph 9.7 mph 94 % 0.0 in
02:37 1.7 °F 0.8 °F 1011.7 in NW 6.4 mph 8.0 mph 94 % 0.0 in
02:43 1.8 °F 0.9 °F 1011.7 in NW 4.7 mph 6.4 mph 94 % 0.0 in
02:49 1.9 °F 1.0 °F 1011.7 in WNW 1.4 mph 6.4 mph 94 % 0.0 in
02:55 1.9 °F 1.0 °F 1011.7 in WNW 3.2 mph 8.0 mph 94 % 0.0 in
03:01 2.0 °F 1.1 °F 1011.7 in WNW 9.7 mph 11.3 mph 94 % 0.0 in
03:07 2.1 °F 1.2 °F 1011.7 in West 3.2 mph 9.7 mph 94 % 0.0 in
03:13 2.1 °F 1.2 °F 1011.7 in WNW 3.2 mph 4.8 mph 94 % 0.0 in
03:19 2.1 °F 1.2 °F 1011.7 in WNW 7.9 mph 8.0 mph 94 % 0.0 in
03:25 2.2 °F 1.3 °F 1011.4 in WNW 3.2 mph 9.7 mph 94 % 0.0 in
03:31 2.2 °F 1.3 °F 1011.4 in West 1.4 mph 6.4 mph 94 % 0.0 in
03:37 2.2 °F 1.3 °F 1011.4 in West 4.7 mph 8.0 mph 94 % 0.0 in
03:43 2.2 °F 1.3 °F 1011.4 in NW 3.2 mph 9.7 mph 94 % 0.0 in
03:49 2.2 °F 1.3 °F 1011.4 in WNW 4.7 mph 9.7 mph 94 % 0.0 in
03:55 2.3 °F 1.3 °F 1011.4 in WNW 1.4 mph 9.7 mph 93 % 0.0 in
04:01 2.3 °F 1.3 °F 1011.4 in NNW 1.4 mph 3.2 mph 93 % 0.0 in
04:07 2.3 °F 1.3 °F 1011.4 in Calm   4.8 mph 93 % 0.0 in
04:13 2.2 °F 1.2 °F 1011.4 in Calm   1.6 mph 93 % 0.0 in
04:19 2.2 °F 1.2 °F 1011.4 in NNW 1.4 mph 6.4 mph 93 % 0.0 in
04:25 2.3 °F 1.3 °F 1011.4 in WNW 4.7 mph 8.0 mph 93 % 0.0 in
04:31 2.3 °F 1.3 °F 1011.1 in WNW 4.7 mph 14.5 mph 93 % 0.0 in
04:37 2.2 °F 1.0 °F 1011.1 in NW 6.4 mph 9.7 mph 92 % 0.0 in
04:43 2.2 °F 1.0 °F 1011.1 in NW 4.7 mph 9.7 mph 92 % 0.0 in
04:49 2.1 °F 1.1 °F 1011.1 in NW 4.7 mph 9.7 mph 93 % 0.0 in
04:55 2.1 °F 1.1 °F 1011.1 in WNW 4.7 mph 8.0 mph 93 % 0.0 in
05:01 2.0 °F 1.0 °F 1011.1 in WNW 3.2 mph 6.4 mph 93 % 0.0 in
05:07 2.0 °F 1.0 °F 1011.1 in NW 1.4 mph 8.0 mph 93 % 0.0 in
05:13 2.1 °F 1.1 °F 1011.1 in NNE 1.4 mph 12.9 mph 93 % 0.0 in
05:19 2.1 °F 1.1 °F 1010.7 in WNW 4.7 mph 8.0 mph 93 % 0.0 in
05:25 2.0 °F 1.0 °F 1010.7 in Calm   6.4 mph 93 % 0.0 in
05:31 2.0 °F 1.0 °F 1010.7 in NNW 7.9 mph 9.7 mph 93 % 0.0 in
05:37 2.0 °F 1.0 °F 1010.7 in North 1.4 mph 4.8 mph 93 % 0.0 in
05:43 1.9 °F 0.9 °F 1010.7 in North 1.4 mph 4.8 mph 93 % 0.0 in
05:49 1.9 °F 0.9 °F 1010.7 in NNW 1.4 mph 1.6 mph 93 % 0.0 in
05:55 1.9 °F 0.9 °F 1010.7 in North 1.4 mph 1.6 mph 93 % 0.0 in
06:01 1.8 °F 0.8 °F 1010.7 in North 3.2 mph 3.2 mph 93 % 0.0 in
06:07 1.8 °F 0.9 °F 1010.7 in Calm   4.8 mph 94 % 0.0 in
06:13 1.8 °F 0.9 °F 1010.7 in NW 1.4 mph 4.8 mph 94 % 0.0 in
06:19 1.8 °F 0.8 °F 1010.7 in NNW 3.2 mph 4.8 mph 93 % 0.0 in
06:25 1.7 °F 0.7 °F 1010.7 in NNW 1.4 mph 4.8 mph 93 % 0.0 in
06:31 1.7 °F 0.7 °F 1010.7 in NW 3.2 mph 4.8 mph 93 % 0.0 in
06:37 1.7 °F 0.8 °F 1010.7 in WNW 1.4 mph 6.4 mph 94 % 0.0 in
06:43 1.7 °F 0.8 °F 1010.7 in Calm   3.2 mph 94 % 0.0 in
06:49 1.7 °F 0.8 °F 1010.7 in Calm   3.2 mph 94 % 0.0 in
06:55 1.7 °F 0.8 °F 1010.7 in WNW 1.4 mph 3.2 mph 94 % 0.0 in
07:01 1.7 °F 0.8 °F 1010.7 in Calm   1.6 mph 94 % 0.0 in
07:07 1.7 °F 0.7 °F 1010.7 in Calm     93 % 0.0 in
07:14 1.6 °F 0.7 °F 1010.7 in Calm     94 % 0.0 in
07:20 1.6 °F 0.7 °F 1010.7 in Calm     94 % 0.0 in
07:26 1.5 °F 0.6 °F 1010.7 in Calm     94 % 0.0 in
07:32 1.4 °F 0.5 °F 1010.7 in Calm     94 % 0.0 in
07:38 1.3 °F 0.4 °F 1010.7 in Calm     94 % 0.0 in
07:44 1.2 °F 0.3 °F 1010.7 in Calm     94 % 0.0 in
07:50 1.2 °F 0.3 °F 1010.7 in Calm   1.6 mph 94 % 0.0 in
07:56 1.2 °F 0.5 °F 1010.7 in Calm   1.6 mph 95 % 0.0 in
08:02 1.1 °F 0.2 °F 1010.7 in Calm     94 % 0.0 in
08:08 1.1 °F 0.4 °F 1010.7 in Calm     95 % 0.0 in
08:14 1.0 °F 0.3 °F 1010.7 in Calm   1.6 mph 95 % 0.0 in
08:20 0.9 °F 0.2 °F 1011.1 in Calm   1.6 mph 95 % 0.0 in
08:26 0.9 °F 0.2 °F 1011.1 in SSW 1.4 mph 3.2 mph 95 % 0.0 in
08:32 0.8 °F 0.2 °F 1011.1 in SW 3.2 mph 6.4 mph 96 % 0.0 in
08:38 0.9 °F 0.3 °F 1011.1 in West 4.7 mph 8.0 mph 96 % 0.0 in
08:44 0.9 °F 0.3 °F 1011.1 in WSW 7.9 mph 9.7 mph 96 % 0.0 in
08:50 0.9 °F 0.3 °F 1011.1 in WSW 4.7 mph 8.0 mph 96 % 0.0 in
08:56 0.9 °F 0.3 °F 1011.1 in West 3.2 mph 6.4 mph 96 % 0.0 in
09:02 1.1 °F 0.5 °F 1011.1 in Calm   8.0 mph 96 % 0.0 in
09:08 1.1 °F 0.4 °F 1010.7 in Calm   1.6 mph 95 % 0.0 in
09:14 1.1 °F 0.4 °F 1010.7 in Calm     95 % 0.0 in
09:20 1.1 °F 0.4 °F 1011.1 in Calm   3.2 mph 95 % 0.0 in
09:26 1.1 °F 0.4 °F 1010.7 in WSW 1.4 mph 3.2 mph 95 % 0.0 in
09:32 1.2 °F 0.5 °F 1010.7 in WSW 3.2 mph 3.2 mph 95 % 0.0 in
09:38 1.2 °F 0.5 °F 1010.7 in West 1.4 mph 1.6 mph 95 % 0.0 in
09:44 1.2 °F 0.5 °F 1010.7 in SW 1.4 mph 1.6 mph 95 % 0.0 in
09:50 1.3 °F 0.6 °F 1010.7 in SW 4.7 mph 6.4 mph 95 % 0.0 in
09:56 1.3 °F 0.6 °F 1010.7 in SW 1.4 mph 4.8 mph 95 % 0.0 in
10:02 1.4 °F 0.7 °F 1010.7 in WSW 3.2 mph 4.8 mph 95 % 0.0 in
10:08 1.6 °F 0.9 °F 1010.7 in WSW 1.4 mph 3.2 mph 95 % 0.0 in
10:14 1.7 °F 1.0 °F 1010.7 in West 3.2 mph 4.8 mph 95 % 0.0 in
10:20 1.8 °F 1.1 °F 1010.7 in West 3.2 mph 6.4 mph 95 % 0.0 in
10:26 2.1 °F 1.4 °F 1010.7 in WSW 6.4 mph 8.0 mph 95 % 0.0 in
10:32 2.2 °F 1.3 °F 1010.7 in SW 3.2 mph 4.8 mph 94 % 0.0 in
10:38 2.3 °F 1.4 °F 1010.7 in WNW 1.4 mph 3.2 mph 94 % 0.0 in
10:44 2.4 °F 1.4 °F 1010.7 in SW 4.7 mph 4.8 mph 93 % 0.0 in
10:50 2.4 °F 1.4 °F 1010.7 in WSW 1.4 mph 4.8 mph 93 % 0.0 in
10:56 2.4 °F 1.4 °F 1010.7 in SW 3.2 mph 6.4 mph 93 % 0.0 in
11:02 2.5 °F 1.5 °F 1010.7 in SW 1.4 mph 4.8 mph 93 % 0.0 in
11:08 2.6 °F 1.7 °F 1010.4 in SW 4.7 mph 6.4 mph 94 % 0.0 in
11:14 2.7 °F 1.7 °F 1010.4 in SW 3.2 mph 4.8 mph 93 % 0.0 in
11:20 2.8 °F 1.8 °F 1010.4 in SSW 6.4 mph 9.7 mph 93 % 0.0 in
11:26 2.7 °F 1.7 °F 1010.4 in SW 4.7 mph 8.0 mph 93 % 0.0 in
11:32 2.8 °F 1.9 °F 1010.4 in SW 4.7 mph 6.4 mph 94 % 0.0 in
11:38 2.9 °F 1.9 °F 1010.4 in SSW 7.9 mph 11.3 mph 93 % 0.0 in
11:45 3.0 °F 1.8 °F 1010.0 in SW 4.7 mph 9.7 mph 92 % 0.0 in
11:50 3.0 °F 1.8 °F 1010.0 in SSW 6.4 mph 9.7 mph 92 % 0.0 in
11:57 3.1 °F 1.9 °F 1010.0 in SSW 4.7 mph 8.0 mph 92 % 0.0 in
12:02 3.1 °F 2.1 °F 1010.0 in SW 11.1 mph 11.3 mph 93 % 0.0 in
12:09 3.3 °F 2.1 °F 1010.0 in SSW 7.9 mph 12.9 mph 92 % 0.0 in
12:15 3.3 °F 2.1 °F 1010.0 in SSW 11.1 mph 14.5 mph 92 % 0.0 in
12:21 3.3 °F 2.1 °F 1010.0 in SSW 7.9 mph 14.5 mph 92 % 0.0 in
12:27 3.2 °F 2.0 °F 1010.0 in SW 11.1 mph 14.5 mph 92 % 0.0 in
12:33 3.2 °F 2.0 °F 1009.7 in South 7.9 mph 12.9 mph 92 % 0.0 in
12:39 3.2 °F 1.9 °F 1009.7 in SSW 9.7 mph 12.9 mph 91 % 0.0 in
12:45 3.3 °F 2.1 °F 1009.7 in SSW 4.7 mph 9.7 mph 92 % 0.0 in
12:51 3.4 °F 2.2 °F 1009.7 in SW 13.0 mph 14.5 mph 92 % 0.0 in
12:57 3.4 °F 2.1 °F 1009.7 in SSW 9.7 mph 14.5 mph 91 % 0.0 in
13:03 3.4 °F 2.1 °F 1009.7 in SW 7.9 mph 12.9 mph 91 % 0.0 in
13:09 3.4 °F 2.1 °F 1009.4 in SW 9.7 mph 14.5 mph 91 % 0.0 in
13:15 3.6 °F 2.3 °F 1009.4 in SW 11.1 mph 16.1 mph 91 % 0.0 in
13:21 3.6 °F 2.3 °F 1009.4 in SW 7.9 mph 12.9 mph 91 % 0.0 in
13:27 3.6 °F 2.1 °F 1009.0 in SW 7.9 mph 11.3 mph 90 % 0.0 in
13:33 3.6 °F 2.1 °F 1009.0 in SW 13.0 mph 14.5 mph 90 % 0.0 in
13:39 3.6 °F 2.3 °F 1009.0 in WSW 3.2 mph 8.0 mph 91 % 0.0 in
13:45 3.6 °F 2.3 °F 1009.0 in WSW 9.7 mph 11.3 mph 91 % 0.0 in
13:51 3.6 °F 2.3 °F 1009.0 in SW 6.4 mph 11.3 mph 91 % 0.0 in
13:57 3.7 °F 2.4 °F 1009.0 in South 6.4 mph 8.0 mph 91 % 0.0 in
14:03 3.7 °F 2.4 °F 1008.7 in SSW 4.7 mph 9.7 mph 91 % 0.0 in
14:09 3.8 °F 2.5 °F 1008.7 in SSW 6.4 mph 8.0 mph 91 % 0.0 in
14:15 3.8 °F 2.5 °F 1008.4 in SW 6.4 mph 12.9 mph 91 % 0.0 in
14:21 3.9 °F 2.4 °F 1008.4 in SW 6.4 mph 11.3 mph 90 % 0.0 in
14:27 4.0 °F 2.4 °F 1008.4 in SW 6.4 mph 12.9 mph 89 % 0.0 in
14:33 4.1 °F 2.5 °F 1008.0 in South 7.9 mph 12.9 mph 89 % 0.0 in
14:39 4.1 °F 2.5 °F 1008.0 in SW 9.7 mph 11.3 mph 89 % 0.0 in
14:45 4.2 °F 2.7 °F 1008.0 in SSW 6.4 mph 16.1 mph 90 % 0.0 in
14:51 4.3 °F 2.5 °F 1007.7 in SW 4.7 mph 14.5 mph 88 % 0.0 in
14:57 4.4 °F 2.4 °F 1007.7 in SSW 4.7 mph 11.3 mph 87 % 0.0 in
15:03 4.4 °F 2.1 °F 1007.7 in SW 7.9 mph 17.7 mph 85 % 0.0 in
15:09 4.3 °F 2.0 °F 1007.3 in SW 9.7 mph 17.7 mph 85 % 0.0 in
15:15 4.1 °F 2.1 °F 1007.3 in WSW 11.1 mph 14.5 mph 87 % 0.0 in
15:21 3.9 °F 2.1 °F 1007.3 in WSW 4.7 mph 11.3 mph 88 % 0.0 in
15:27 3.9 °F 2.3 °F 1007.3 in SW 7.9 mph 9.7 mph 89 % 0.0 in
15:33 3.9 °F 2.3 °F 1007.3 in SW 6.4 mph 12.9 mph 89 % 0.0 in
15:39 4.0 °F 2.0 °F 1007.3 in SW 11.1 mph 14.5 mph 87 % 0.0 in
15:45 4.0 °F 1.9 °F 1007.3 in SW 17.7 mph 19.3 mph 86 % 0.0 in
15:51 4.0 °F 2.0 °F 1007.3 in SW 7.9 mph 12.9 mph 87 % 0.0 in
15:57 4.0 °F 2.2 °F 1007.3 in West 9.7 mph 9.7 mph 88 % 0.0 in
16:03 4.1 °F 2.3 °F 1007.3 in West 13.0 mph 19.3 mph 88 % 0.0 in
16:09 3.9 °F 2.1 °F 1007.3 in SW 7.9 mph 14.5 mph 88 % 0.0 in
16:15 3.8 °F 2.2 °F 1007.3 in SW 7.9 mph 16.1 mph 89 % 0.3 in
16:21 3.6 °F 2.1 °F 1007.0 in SW 13.0 mph 13.0 mph 90 % 0.3 in
16:27 3.6 °F 2.1 °F 1007.0 in SW 7.9 mph 11.3 mph 90 % 0.3 in
16:33 3.6 °F 2.1 °F 1007.0 in SW 4.7 mph 9.7 mph 90 % 0.3 in
16:39 3.8 °F 2.5 °F 1007.0 in SW 4.7 mph 6.4 mph 91 % 0.3 in
16:45 3.7 °F 2.2 °F 1007.0 in SW 4.7 mph 6.4 mph 90 % 0.3 in
16:51 3.8 °F 2.5 °F 1006.7 in SSE 1.4 mph 4.8 mph 91 % 0.3 in
16:57 3.8 °F 2.5 °F 1006.7 in SSW 3.2 mph 6.4 mph 91 % 0.3 in
17:03 3.8 °F 2.5 °F 1006.7 in SSW 3.2 mph 4.8 mph 91 % 0.3 in
17:09 3.8 °F 2.5 °F 1006.7 in Calm   4.8 mph 91 % 0.3 in
17:15 3.7 °F 2.5 °F 1006.7 in SE 1.4 mph 3.2 mph 92 % 0.0 in
17:21 3.7 °F 2.5 °F 1006.7 in Calm   3.2 mph 92 % 0.0 in
17:27 3.7 °F 2.5 °F 1006.7 in Calm     92 % 0.0 in
17:33 3.6 °F 2.4 °F 1006.7 in Calm   1.6 mph 92 % 0.0 in
17:39 3.6 °F 2.4 °F 1006.3 in Calm   1.6 mph 92 % 0.0 in
17:45 3.6 °F 2.4 °F 1006.3 in Calm     92 % 0.0 in
17:51 3.6 °F 2.4 °F 1006.3 in Calm     92 % 0.0 in
17:57 3.6 °F 2.6 °F 1006.3 in Calm     93 % 0.0 in
18:04 3.6 °F 2.6 °F 1006.3 in Calm     93 % 0.0 in
18:10 3.6 °F 2.6 °F 1006.3 in Calm   1.6 mph 93 % 0.0 in
18:16 3.5 °F 2.5 °F 1006.3 in Calm   1.6 mph 93 % 0.0 in
18:22 3.6 °F 2.6 °F 1006.3 in Calm   1.6 mph 93 % 0.0 in
18:28 3.6 °F 2.6 °F 1006.3 in Calm   1.6 mph 93 % 0.0 in
18:34 3.6 °F 2.6 °F 1006.3 in Calm   1.6 mph 93 % 0.0 in
18:40 3.6 °F 2.6 °F 1006.3 in Calm   1.6 mph 93 % 0.0 in
18:46 3.6 °F 2.6 °F 1006.3 in Calm   1.6 mph 93 % 0.0 in
18:52 3.6 °F 2.6 °F 1006.3 in Calm     93 % 0.0 in
18:58 3.7 °F 2.7 °F 1006.7 in SSE 1.4 mph 1.6 mph 93 % 0.3 in
19:04 3.7 °F 2.7 °F 1006.7 in SE 1.4 mph 1.6 mph 93 % 0.3 in
19:10 3.6 °F 2.7 °F 1006.3 in Calm   3.2 mph 94 % 0.3 in
19:16 3.6 °F 2.7 °F 1006.3 in Calm   4.8 mph 94 % 0.3 in
19:22 3.6 °F 2.7 °F 1006.7 in Calm   1.6 mph 94 % 0.3 in
19:24 3.6 °F 2.7 °F 1006.7 in Calm   1.6 mph 94 % 0.3 in
19:30 3.6 °F 2.7 °F 1006.7 in Calm   1.6 mph 94 % 0.3 in
19:36 3.6 °F 2.7 °F 1006.7 in Calm   1.6 mph 94 % 0.3 in
19:42 3.6 °F 2.7 °F 1006.7 in SW 1.4 mph 1.6 mph 94 % 0.3 in
19:48 3.6 °F 2.7 °F 1006.7 in SSW 1.4 mph 1.6 mph 94 % 0.3 in
19:54 3.6 °F 2.7 °F 1006.7 in Calm     94 % 0.3 in
20:00 3.6 °F 2.7 °F 1006.7 in Calm   1.6 mph 94 % 0.0 in
20:06 3.5 °F 2.6 °F 1006.7 in Calm   3.2 mph 94 % 0.0 in
20:12 3.5 °F 2.6 °F 1006.7 in Calm   1.6 mph 94 % 0.0 in
20:18 3.5 °F 2.6 °F 1006.7 in Calm   1.6 mph 94 % 0.0 in
20:24 3.4 °F 2.5 °F 1006.7 in Calm   3.2 mph 94 % 0.0 in
20:30 3.4 °F 2.4 °F 1006.7 in Calm   3.2 mph 93 % 0.0 in
20:36 3.4 °F 2.4 °F 1006.7 in Calm   3.2 mph 93 % 0.0 in
20:42 3.4 °F 2.5 °F 1006.7 in Calm   1.6 mph 94 % 0.0 in
20:49 3.4 °F 2.5 °F 1006.7 in Calm   3.2 mph 94 % 0.0 in
20:55 3.3 °F 2.4 °F 1006.7 in SSE 1.4 mph 3.2 mph 94 % 0.0 in
21:01 3.3 °F 2.4 °F 1006.7 in Calm   1.6 mph 94 % 0.0 in
21:07 3.3 °F 2.4 °F 1006.7 in Calm   1.6 mph 94 % 0.0 in
21:13 3.3 °F 2.4 °F 1006.7 in Calm   1.6 mph 94 % 0.0 in
21:19 3.2 °F 2.3 °F 1006.7 in Calm   3.2 mph 94 % 0.0 in
21:25 3.2 °F 2.5 °F 1006.7 in Calm   1.6 mph 95 % 0.0 in
21:31 3.2 °F 2.5 °F 1006.7 in SE 1.4 mph 3.2 mph 95 % 0.0 in
21:37 3.2 °F 2.5 °F 1006.7 in Calm   3.2 mph 95 % 0.0 in
21:43 3.2 °F 2.5 °F 1006.7 in SE 4.7 mph 4.8 mph 95 % 0.0 in
21:49 3.2 °F 2.5 °F 1006.7 in SE 1.4 mph 4.8 mph 95 % 0.0 in
21:55 3.2 °F 2.5 °F 1006.7 in SSE 1.4 mph 4.8 mph 95 % 0.0 in
22:01 3.2 °F 2.5 °F 1006.7 in SE 3.2 mph 4.8 mph 95 % 0.0 in
22:07 3.2 °F 2.5 °F 1007.0 in Calm   4.8 mph 95 % 0.0 in
22:13 3.2 °F 2.5 °F 1007.0 in Calm   3.2 mph 95 % 0.0 in
22:19 3.2 °F 2.5 °F 1007.0 in SSE 3.2 mph 3.2 mph 95 % 0.0 in
22:25 3.2 °F 2.5 °F 1007.0 in Calm   1.6 mph 95 % 0.0 in
22:31 3.2 °F 2.5 °F 1007.0 in Calm   3.2 mph 95 % 0.0 in
22:37 3.2 °F 2.5 °F 1007.0 in Calm   1.6 mph 95 % 0.0 in
22:43 3.2 °F 2.5 °F 1007.0 in Calm   6.4 mph 95 % 0.0 in
22:49 3.2 °F 2.5 °F 1007.0 in Calm   4.8 mph 95 % 0.0 in
22:55 3.2 °F 2.5 °F 1007.3 in Calm   4.8 mph 95 % 0.0 in
23:01 3.2 °F 2.5 °F 1007.3 in SW 6.4 mph 6.4 mph 95 % 0.0 in
23:07 3.2 °F 2.3 °F 1007.3 in SSW 4.7 mph 12.9 mph 94 % 0.0 in
23:13 3.2 °F 2.2 °F 1007.3 in SSW 13.0 mph 14.5 mph 93 % 0.0 in
23:19 3.2 °F 2.2 °F 1007.3 in SSW 6.4 mph 8.0 mph 93 % 0.0 in
23:25 3.1 °F 2.1 °F 1007.3 in South 4.7 mph 9.7 mph 93 % 0.0 in
23:31 3.1 °F 2.1 °F 1007.3 in SSW 7.9 mph 11.3 mph 93 % 0.0 in
23:37 3.1 °F 2.2 °F 1007.3 in SSW 4.7 mph 9.7 mph 94 % 0.0 in
23:43 3.0 °F 2.1 °F 1007.3 in SSE 3.2 mph 4.8 mph 94 % 0.0 in
23:49 2.9 °F 2.0 °F 1007.3 in SSW 1.4 mph 8.0 mph 94 % 0.0 in
23:55 2.9 °F 2.0 °F 1007.7 in SSW 4.7 mph 9.7 mph 94 % 0.0 in
Meteo18
Compliments of Weather Underground - 4 mb

Script developed by  Jim McMurry - jmcmurry@mwt.net Adapted for the template by  Wim van der Kuil - Leuven-Template.eu

You find our weather info also at:

European Weather Network

Weather Underground

Equipment we use:

Weather-station
Davis Vue

Weather-program
Meteobridge

Weather-server
Raspberry PI 2 B+

Provider
1 and 1

Davis Vue

Meteobridge

Raspberry PI 2 B+

1 and 1